Ludlow, Massachusetts
Current Conditions -  °F | °C
As of 6:58 AM on Monday 20 Oct 2014 (Local Time) from KCEF Reporting Station
Overcast Overcast  
Wind Chill: 32°   Ceiling: 13000
Heat Index: 32°   Visibility: 10mi
Dew Point: 29°   Wind: 2mph
Humidity: 88%   Direction: 160°SSE
Pressure: 30.03"   Gusts: NA
Location:  42.16°N, 72.48°W
Report Text: KCEF 201058Z AUTO 16002KT 10SM OVC130 00/M02 A3003 RMK AO2 SLP177 T10021019
Loading
Personal Weather Stations






























Interactive Weather Map
Tropical Storm Tracking
New forecast layout! Learn more

10-Day Weather Forecast

Advertisements
Track Severe Weather on mobile